createdAt,value
2023-02-06T00:00:50.755Z,3.50
2023-02-06T00:01:48.486Z,3.52
2023-02-06T00:02:49.320Z,3.57
2023-02-06T00:03:48.856Z,3.60
2023-02-06T00:04:50.712Z,3.57
2023-02-06T00:05:49.263Z,3.52
2023-02-06T00:06:49.443Z,3.53
2023-02-06T00:07:50.288Z,3.43
2023-02-06T00:08:49.803Z,3.47
2023-02-06T00:09:49.988Z,3.49
2023-02-06T00:10:50.745Z,3.52
2023-02-06T00:11:50.414Z,3.40
2023-02-06T00:12:51.248Z,3.50
2023-02-06T00:13:50.785Z,3.39
2023-02-06T00:14:50.959Z,3.34
2023-02-06T00:15:51.170Z,3.40
2023-02-06T00:16:51.282Z,3.36
2023-02-06T00:17:52.294Z,3.34
2023-02-06T00:18:51.700Z,3.25
2023-02-06T00:19:51.848Z,3.28
2023-02-06T00:20:52.006Z,3.23
2023-02-06T00:21:52.757Z,3.27
2023-02-06T00:22:53.242Z,3.24
2023-02-06T00:23:54.248Z,3.30
2023-02-06T00:24:52.862Z,3.28
2023-02-06T00:25:53.032Z,3.23
2023-02-06T00:26:53.202Z,3.24
2023-02-06T00:27:53.837Z,3.24
2023-02-06T00:28:53.488Z,3.27
2023-02-06T00:29:53.655Z,3.33
2023-02-06T00:30:53.906Z,3.24
2023-02-06T00:31:53.997Z,3.25
2023-02-06T00:32:54.205Z,3.25
2023-02-06T00:33:54.376Z,3.13
2023-02-06T00:34:54.541Z,3.23
2023-02-06T00:35:54.711Z,3.20
2023-02-06T00:36:55.797Z,3.18
2023-02-06T00:37:55.081Z,3.15
2023-02-06T00:38:55.267Z,3.16
2023-02-06T00:39:55.444Z,3.21
2023-02-06T00:40:55.624Z,3.18
2023-02-06T00:41:56.298Z,3.07
2023-02-06T00:42:55.998Z,3.16
2023-02-06T00:43:56.164Z,2.97
2023-02-06T00:44:56.353Z,3.13
2023-02-06T00:45:57.257Z,3.07
2023-02-06T00:46:56.786Z,3.12
2023-02-06T00:47:57.320Z,3.03
2023-02-06T00:48:57.313Z,2.94
2023-02-06T00:49:58.261Z,3.00
2023-02-06T00:50:58.260Z,3.02
2023-02-06T00:51:57.654Z,2.98
2023-02-06T00:52:58.802Z,3.00
2023-02-06T00:53:58.314Z,3.07
2023-02-06T00:54:59.257Z,2.95
2023-02-06T00:55:58.831Z,2.95
2023-02-06T00:56:58.472Z,2.85
2023-02-06T00:58:00.269Z,2.94
2023-02-06T00:58:58.773Z,2.87
2023-02-06T01:00:00.768Z,2.92
2023-02-06T01:00:59.130Z,2.84
2023-02-06T01:02:00.320Z,2.77
2023-02-06T01:03:01.311Z,2.87
2023-02-06T01:04:00.782Z,2.88
2023-02-06T01:04:59.932Z,2.82
2023-02-06T01:06:00.139Z,2.84
2023-02-06T01:07:00.318Z,2.95
2023-02-06T01:08:01.164Z,2.84
2023-02-06T01:09:02.263Z,2.92
2023-02-06T01:10:00.904Z,2.87
2023-02-06T01:11:02.321Z,2.81
2023-02-06T01:12:01.230Z,2.92
2023-02-06T01:13:02.767Z,2.81
2023-02-06T01:14:01.654Z,2.87
2023-02-06T01:15:03.266Z,2.76
2023-02-06T01:16:02.065Z,2.81
2023-02-06T01:17:36.217Z,2.77
2023-02-06T01:18:02.464Z,2.97
2023-02-06T01:19:02.629Z,2.94
2023-02-06T01:20:23.772Z,2.94
2023-02-06T01:21:04.354Z,2.98
2023-02-06T01:22:03.829Z,2.94
2023-02-06T01:23:04.169Z,2.88
2023-02-06T01:24:04.688Z,2.91
2023-02-06T01:25:03.809Z,2.91
2023-02-06T01:26:03.949Z,2.95
2023-02-06T01:27:04.116Z,3.05
2023-02-06T01:28:04.328Z,2.91
2023-02-06T01:29:04.495Z,2.92
2023-02-06T01:30:04.700Z,2.95
2023-02-06T01:31:05.003Z,2.88
2023-02-06T01:32:05.014Z,2.89
2023-02-06T01:33:06.295Z,2.94
2023-02-06T01:34:06.296Z,2.97
2023-02-06T01:35:05.439Z,2.92
2023-02-06T01:36:05.605Z,2.97
2023-02-06T01:37:06.310Z,2.88
2023-02-06T01:38:06.803Z,2.91
2023-02-06T01:39:06.194Z,2.89
2023-02-06T01:40:06.354Z,2.97
2023-02-06T01:41:06.537Z,2.94
2023-02-06T01:42:07.749Z,2.91
2023-02-06T01:43:06.896Z,2.76
2023-02-06T01:44:07.131Z,2.81
2023-02-06T01:45:07.347Z,2.84
2023-02-06T01:46:07.552Z,2.91
2023-02-06T01:47:07.753Z,2.92
2023-02-06T01:48:07.931Z,2.84
2023-02-06T01:49:08.113Z,2.88
2023-02-06T01:50:08.803Z,2.84
2023-02-06T01:51:08.462Z,2.85
2023-02-06T01:52:08.643Z,2.84
2023-02-06T01:53:09.797Z,2.82
2023-02-06T01:54:11.803Z,2.74
2023-02-06T01:55:09.143Z,2.71
2023-02-06T01:56:09.295Z,2.74
2023-02-06T01:57:10.357Z,2.74
2023-02-06T01:58:09.848Z,2.79
2023-02-06T01:59:10.298Z,2.79
2023-02-06T02:00:09.948Z,2.76
2023-02-06T02:01:10.798Z,2.77
2023-02-06T02:02:11.198Z,2.76
2023-02-06T02:03:11.804Z,2.76
2023-02-06T02:04:10.676Z,2.67
2023-02-06T02:05:10.817Z,2.88
2023-02-06T02:06:10.983Z,2.74
2023-02-06T02:07:11.147Z,2.76
2023-02-06T02:08:11.305Z,2.73
2023-02-06T02:09:14.288Z,2.84
2023-02-06T02:10:11.609Z,2.71
2023-02-06T02:11:12.662Z,2.76
2023-02-06T02:12:12.838Z,2.74
2023-02-06T02:13:12.099Z,2.87
2023-02-06T02:14:12.278Z,2.69
2023-02-06T02:15:12.455Z,2.74
2023-02-06T02:16:12.709Z,2.73
2023-02-06T02:17:13.808Z,2.67
2023-02-06T02:18:13.105Z,2.58
2023-02-06T02:19:13.320Z,2.64
2023-02-06T02:20:14.308Z,2.64
2023-02-06T02:21:13.713Z,2.59
2023-02-06T02:22:13.892Z,2.63
2023-02-06T02:23:14.053Z,2.61
2023-02-06T02:24:14.824Z,2.61
2023-02-06T02:25:15.315Z,2.74
2023-02-06T02:26:14.584Z,2.76
2023-02-06T02:27:15.810Z,2.73
2023-02-06T02:28:15.842Z,2.66
2023-02-06T02:29:15.103Z,2.56
2023-02-06T02:30:15.318Z,2.63
2023-02-06T02:31:16.418Z,2.67
2023-02-06T02:32:16.306Z,2.53
2023-02-06T02:33:16.855Z,2.56
2023-02-06T02:34:16.814Z,2.49
2023-02-06T02:35:16.370Z,2.48
2023-02-06T02:36:16.542Z,2.53
2023-02-06T02:37:17.363Z,2.41
2023-02-06T02:38:16.852Z,2.55
2023-02-06T02:39:16.997Z,2.33
2023-02-06T02:40:17.365Z,2.34
2023-02-06T02:41:18.407Z,2.30
2023-02-06T02:42:18.316Z,2.30
2023-02-06T02:43:17.711Z,2.40
2023-02-06T02:44:19.322Z,2.44
2023-02-06T02:45:18.108Z,2.31
2023-02-06T02:46:18.851Z,2.33
2023-02-06T02:47:19.815Z,2.38
2023-02-06T02:48:18.685Z,2.28
2023-02-06T02:49:18.859Z,2.38
2023-02-06T02:50:19.818Z,2.44
2023-02-06T02:51:19.221Z,2.48
2023-02-06T02:52:20.317Z,2.40
2023-02-06T02:53:20.314Z,2.41
2023-02-06T02:54:19.816Z,2.49
2023-02-06T02:55:19.998Z,2.45
2023-02-06T02:56:20.154Z,2.52
2023-02-06T02:57:21.813Z,2.49
2023-02-06T02:58:20.877Z,2.51
2023-02-06T02:59:20.766Z,2.52
2023-02-06T03:00:21.916Z,2.56
2023-02-06T03:01:21.084Z,2.59
2023-02-06T03:02:21.209Z,2.51
2023-02-06T03:03:21.389Z,2.49
2023-02-06T03:04:21.547Z,2.48
2023-02-06T03:05:24.250Z,2.45
2023-02-06T03:06:21.867Z,2.44
2023-02-06T03:07:22.059Z,2.38
2023-02-06T03:08:22.220Z,2.45
2023-02-06T03:09:22.388Z,2.49
2023-02-06T03:10:23.308Z,2.46
2023-02-06T03:11:24.185Z,2.44
2023-02-06T03:12:24.755Z,2.44
2023-02-06T03:13:23.104Z,2.59
2023-02-06T03:14:24.306Z,2.45
2023-02-06T03:15:24.819Z,2.61
2023-02-06T03:16:23.568Z,2.53
2023-02-06T03:17:23.777Z,2.49
2023-02-06T03:18:24.810Z,2.44
2023-02-06T03:19:24.069Z,2.63
2023-02-06T03:20:24.245Z,2.49
2023-02-06T03:21:25.307Z,2.48
2023-02-06T03:22:25.351Z,2.46
2023-02-06T03:23:24.839Z,2.49
2023-02-06T03:24:24.993Z,2.61
2023-02-06T03:25:25.174Z,2.53
2023-02-06T03:26:25.318Z,2.56
2023-02-06T03:27:25.454Z,2.59
2023-02-06T03:28:25.612Z,2.59
2023-02-06T03:29:26.353Z,2.58
2023-02-06T03:30:27.323Z,2.63
2023-02-06T03:31:26.864Z,2.64
2023-02-06T03:32:26.424Z,2.69
2023-02-06T03:33:26.590Z,2.71
2023-02-06T03:34:26.786Z,2.64
2023-02-06T03:35:26.947Z,2.58
2023-02-06T03:36:27.086Z,2.48
2023-02-06T03:37:27.249Z,2.61
2023-02-06T03:38:27.394Z,2.51
2023-02-06T03:39:27.579Z,2.51
2023-02-06T03:40:27.705Z,2.56
2023-02-06T03:41:28.821Z,2.44
2023-02-06T03:42:27.969Z,2.46
2023-02-06T03:43:29.805Z,2.46
2023-02-06T03:44:28.318Z,2.63
2023-02-06T03:45:28.518Z,2.53
2023-02-06T03:46:29.317Z,2.66
2023-02-06T03:47:28.867Z,2.63
2023-02-06T03:48:29.049Z,2.56
2023-02-06T03:49:29.251Z,2.63
2023-02-06T03:50:29.428Z,2.52
2023-02-06T03:51:29.583Z,2.58
2023-02-06T03:52:29.776Z,2.59
2023-02-06T03:53:30.829Z,2.51
2023-02-06T03:54:30.092Z,2.46
2023-02-06T03:55:30.315Z,2.46
2023-02-06T03:56:30.506Z,2.40
2023-02-06T03:57:30.712Z,2.52
2023-02-06T03:58:31.818Z,2.49
2023-02-06T03:59:31.833Z,2.51
2023-02-06T04:00:33.319Z,2.55
2023-02-06T04:01:31.462Z,2.49
2023-02-06T04:02:31.646Z,2.46
2023-02-06T04:03:31.831Z,2.55
2023-02-06T04:04:31.988Z,2.56
2023-02-06T04:05:32.150Z,2.53
2023-02-06T04:06:32.345Z,2.46
2023-02-06T04:07:32.501Z,2.55
2023-02-06T04:08:32.689Z,2.55
2023-02-06T04:09:33.865Z,2.55
2023-02-06T04:10:33.826Z,2.51
2023-02-06T04:11:33.203Z,2.51
2023-02-06T04:12:33.381Z,2.46
2023-02-06T04:13:33.560Z,2.49
2023-02-06T04:14:34.825Z,2.53
2023-02-06T04:15:34.325Z,2.45
2023-02-06T04:16:34.338Z,2.48
2023-02-06T04:17:49.695Z,2.48
2023-02-06T04:18:36.480Z,2.56
2023-02-06T04:19:35.191Z,2.52
2023-02-06T04:20:34.837Z,2.56
2023-02-06T04:21:35.011Z,2.51
2023-02-06T04:22:35.827Z,2.49
2023-02-06T04:23:35.341Z,2.41
2023-02-06T04:24:35.513Z,2.56
2023-02-06T04:25:36.102Z,2.45
2023-02-06T04:26:36.327Z,2.56
2023-02-06T04:27:35.976Z,2.53
2023-02-06T04:28:37.331Z,2.53
2023-02-06T04:29:36.355Z,2.59
2023-02-06T04:30:37.399Z,2.59
2023-02-06T04:31:36.684Z,2.48
2023-02-06T04:32:38.326Z,2.45
2023-02-06T04:33:37.086Z,2.41
2023-02-06T04:34:37.875Z,2.45
2023-02-06T04:35:37.658Z,2.40
2023-02-06T04:36:37.546Z,2.28
2023-02-06T04:37:37.714Z,2.37
2023-02-06T04:38:37.891Z,2.22
2023-02-06T04:39:38.833Z,2.26
2023-02-06T04:40:38.221Z,2.31
2023-02-06T04:41:38.406Z,2.28
2023-02-06T04:42:38.590Z,2.31
2023-02-06T04:43:39.329Z,2.20
2023-02-06T04:44:39.882Z,2.20
2023-02-06T04:45:39.270Z,2.17
2023-02-06T04:46:39.831Z,2.22
2023-02-06T04:47:39.478Z,2.22
2023-02-06T04:48:39.672Z,2.17
2023-02-06T04:49:40.372Z,2.17
2023-02-06T04:50:41.021Z,2.27
2023-02-06T04:51:40.163Z,2.12
2023-02-06T04:52:40.840Z,2.12
2023-02-06T04:53:40.885Z,2.13
2023-02-06T04:54:40.676Z,2.01
2023-02-06T04:55:40.869Z,2.02
2023-02-06T04:56:41.042Z,2.01
2023-02-06T04:57:42.833Z,1.99
2023-02-06T04:58:41.482Z,1.94
2023-02-06T04:59:41.656Z,1.89
2023-02-06T05:00:42.830Z,1.93
2023-02-06T05:01:42.441Z,1.93
2023-02-06T05:02:42.473Z,1.83
2023-02-06T05:03:42.251Z,1.87
2023-02-06T05:04:43.378Z,1.89
2023-02-06T05:05:42.623Z,1.97
2023-02-06T05:06:44.329Z,1.98
2023-02-06T05:07:43.699Z,1.99
2023-02-06T05:08:43.395Z,1.90
2023-02-06T05:09:43.280Z,1.90
2023-02-06T05:10:43.443Z,1.98
2023-02-06T05:11:44.198Z,1.99
2023-02-06T05:12:43.853Z,1.89
2023-02-06T05:13:44.056Z,1.94
2023-02-06T05:15:19.312Z,1.79
2023-02-06T05:15:44.420Z,1.91
2023-02-06T05:16:45.369Z,1.89
2023-02-06T05:17:45.366Z,1.99
2023-02-06T05:18:44.890Z,1.98
2023-02-06T05:19:45.074Z,1.89
2023-02-06T05:20:45.247Z,1.93
2023-02-06T05:21:45.389Z,1.89
2023-02-06T05:22:46.867Z,1.82
2023-02-06T05:23:46.366Z,1.83
2023-02-06T05:24:45.886Z,1.85
2023-02-06T05:25:46.022Z,1.89
2023-02-06T05:26:46.167Z,1.94
2023-02-06T05:27:46.316Z,1.91
2023-02-06T05:28:46.464Z,1.87
2023-02-06T05:29:46.713Z,1.85
2023-02-06T05:30:46.889Z,1.87
2023-02-06T05:31:48.914Z,1.99
2023-02-06T05:32:47.909Z,1.90
2023-02-06T05:33:47.515Z,1.89
2023-02-06T05:34:47.930Z,2.01
2023-02-06T05:35:48.867Z,2.10
2023-02-06T05:36:48.912Z,2.10
2023-02-06T05:37:48.256Z,2.10
2023-02-06T05:38:49.382Z,2.12
2023-02-06T05:39:48.670Z,2.10
2023-02-06T05:40:48.815Z,2.12
2023-02-06T05:41:48.956Z,2.16
2023-02-06T05:42:49.917Z,2.09
2023-02-06T05:43:49.274Z,2.10
2023-02-06T05:44:49.411Z,2.08
2023-02-06T05:45:49.585Z,2.13
2023-02-06T05:46:49.777Z,2.19
2023-02-06T05:47:49.947Z,2.22
2023-02-06T05:48:50.889Z,2.26
2023-02-06T05:49:50.228Z,2.19
2023-02-06T05:50:50.560Z,2.16
2023-02-06T05:51:51.729Z,2.08
2023-02-06T05:52:50.839Z,2.01
2023-02-06T05:53:51.878Z,2.02
2023-02-06T05:54:51.927Z,2.08
2023-02-06T05:55:51.878Z,2.10
2023-02-06T05:56:52.393Z,2.09
2023-02-06T05:57:51.682Z,2.04
2023-02-06T05:58:52.420Z,2.13
2023-02-06T05:59:52.881Z,2.10
2023-02-06T06:00:52.317Z,2.17
2023-02-06T06:01:52.473Z,2.12
2023-02-06T06:02:53.887Z,2.22
2023-02-06T06:03:52.791Z,2.16
2023-02-06T06:04:53.090Z,2.20
2023-02-06T06:05:53.152Z,2.15
2023-02-06T06:06:54.380Z,2.13
2023-02-06T06:07:53.521Z,2.12
2023-02-06T06:08:53.692Z,1.99
2023-02-06T06:09:55.745Z,1.90
2023-02-06T06:10:55.747Z,1.98
2023-02-06T06:11:54.298Z,1.94
2023-02-06T06:12:55.465Z,2.01
2023-02-06T06:13:55.884Z,2.04
2023-02-06T06:14:54.782Z,1.90
2023-02-06T06:15:55.765Z,1.90
2023-02-06T06:16:55.211Z,1.85
2023-02-06T06:17:55.381Z,1.89
2023-02-06T06:18:55.574Z,1.97
2023-02-06T06:19:55.745Z,1.90
2023-02-06T06:20:57.383Z,1.83
2023-02-06T06:21:58.268Z,1.85
2023-02-06T06:22:57.309Z,1.73
2023-02-06T06:23:57.387Z,1.87
2023-02-06T06:24:57.428Z,1.82
2023-02-06T06:25:56.838Z,1.79
2023-02-06T06:26:57.045Z,1.68
2023-02-06T06:27:57.273Z,1.75
2023-02-06T06:28:57.463Z,1.69
2023-02-06T06:29:58.388Z,1.75
2023-02-06T06:30:57.812Z,1.69
2023-02-06T06:31:58.476Z,1.75
2023-02-06T06:32:58.926Z,1.75
2023-02-06T06:33:58.327Z,1.64
2023-02-06T06:34:59.428Z,1.65
2023-02-06T06:35:58.700Z,1.76
2023-02-06T06:37:00.395Z,1.79
2023-02-06T06:38:00.751Z,1.79
2023-02-06T06:38:59.932Z,1.78
2023-02-06T06:40:00.426Z,1.79
2023-02-06T06:41:00.888Z,1.71
2023-02-06T06:42:00.918Z,1.76
2023-02-06T06:43:00.092Z,1.75
2023-02-06T06:44:00.285Z,1.75
2023-02-06T06:45:01.427Z,1.64
2023-02-06T06:46:01.465Z,1.72
2023-02-06T06:47:00.885Z,1.78
2023-02-06T06:48:01.889Z,1.82
2023-02-06T06:49:01.753Z,1.76
2023-02-06T06:50:01.440Z,1.89
2023-02-06T06:51:01.614Z,1.80
2023-02-06T06:52:02.431Z,1.76
2023-02-06T06:53:01.990Z,1.82
2023-02-06T06:54:02.934Z,1.80
2023-02-06T06:55:02.364Z,1.79
2023-02-06T06:56:03.386Z,1.65
2023-02-06T06:57:02.803Z,1.75
2023-02-06T06:58:03.019Z,1.78
2023-02-06T06:59:03.210Z,1.76
2023-02-06T07:00:03.934Z,1.68
2023-02-06T07:01:04.493Z,1.65
2023-02-06T07:02:03.789Z,1.64
2023-02-06T07:03:04.500Z,1.65
2023-02-06T07:04:04.179Z,1.65
2023-02-06T07:05:04.895Z,1.64
2023-02-06T07:06:04.498Z,1.72
2023-02-06T07:07:04.731Z,1.64
2023-02-06T07:08:04.922Z,1.58
2023-02-06T07:09:05.075Z,1.52
2023-02-06T07:10:05.238Z,1.47
2023-02-06T07:11:06.389Z,1.42
2023-02-06T07:12:06.389Z,1.39
2023-02-06T07:13:06.401Z,1.54
2023-02-06T07:14:07.343Z,1.55
2023-02-06T07:15:05.957Z,1.54
2023-02-06T07:16:06.910Z,1.51
2023-02-06T07:17:06.299Z,1.40
2023-02-06T07:18:06.474Z,1.50
2023-02-06T07:19:06.618Z,1.39
2023-02-06T07:20:07.436Z,1.37
2023-02-06T07:21:07.962Z,1.33
2023-02-06T07:22:07.453Z,1.29
2023-02-06T07:23:07.238Z,1.36
2023-02-06T07:24:07.390Z,1.33
2023-02-06T07:25:07.548Z,1.40
2023-02-06T07:26:09.398Z,1.39
2023-02-06T07:27:07.944Z,1.42
2023-02-06T07:28:08.526Z,1.46
2023-02-06T07:29:08.332Z,1.40
2023-02-06T07:30:09.403Z,1.57
2023-02-06T07:31:08.668Z,1.47
2023-02-06T07:32:09.466Z,1.55
2023-02-06T07:33:09.019Z,1.46
2023-02-06T07:34:09.222Z,1.34
2023-02-06T07:35:09.456Z,1.32
2023-02-06T07:36:10.423Z,1.34
2023-02-06T07:37:11.404Z,1.28
2023-02-06T07:38:10.041Z,1.29
2023-02-06T07:39:10.208Z,1.32
2023-02-06T07:40:10.406Z,1.46
2023-02-06T07:41:12.632Z,1.50
2023-02-06T07:42:11.439Z,1.54
2023-02-06T07:43:10.958Z,1.60
2023-02-06T07:44:11.132Z,1.72
2023-02-06T07:45:11.324Z,1.62
2023-02-06T07:46:12.484Z,1.54
2023-02-06T07:47:11.652Z,1.47
2023-02-06T07:48:12.409Z,1.51
2023-02-06T07:49:11.929Z,1.55
2023-02-06T07:50:12.904Z,1.50
2023-02-06T07:51:12.277Z,1.51
2023-02-06T07:52:12.458Z,1.44
2023-02-06T07:53:12.633Z,1.54
2023-02-06T07:54:12.825Z,1.62
2023-02-06T07:55:13.065Z,1.65
2023-02-06T07:56:14.407Z,1.72
2023-02-06T07:57:13.446Z,1.58
2023-02-06T07:58:13.657Z,1.64
2023-02-06T07:59:13.809Z,1.62
2023-02-06T08:00:14.910Z,1.71
2023-02-06T08:01:14.917Z,1.68
2023-02-06T08:02:14.391Z,1.76
2023-02-06T08:03:14.607Z,1.80
2023-02-06T08:04:14.865Z,1.93
2023-02-06T08:05:14.944Z,1.83
2023-02-06T08:06:15.163Z,1.75
2023-02-06T08:07:16.409Z,1.73
2023-02-06T08:08:15.451Z,1.78
2023-02-06T08:09:15.661Z,1.75
2023-02-06T08:10:15.861Z,1.72
2023-02-06T08:11:16.094Z,1.82
2023-02-06T08:12:17.909Z,1.85
2023-02-06T08:13:16.912Z,1.90
2023-02-06T08:14:17.274Z,1.93
2023-02-06T08:15:16.722Z,1.91
2023-02-06T08:16:16.860Z,2.06
2023-02-06T08:17:19.447Z,2.15
2023-02-06T08:18:17.213Z,2.01
2023-02-06T08:19:17.547Z,2.12
2023-02-06T08:20:17.630Z,1.99
2023-02-06T08:21:17.875Z,1.94
2023-02-06T08:22:18.909Z,2.10
2023-02-06T08:23:20.117Z,1.99
2023-02-06T08:24:18.481Z,1.94
2023-02-06T08:25:19.453Z,1.90
2023-02-06T08:26:18.749Z,2.04
2023-02-06T08:27:20.408Z,2.15
2023-02-06T08:28:19.218Z,2.28
2023-02-06T08:29:19.314Z,2.31
2023-02-06T08:30:19.986Z,2.10
2023-02-06T08:31:19.868Z,1.94
2023-02-06T08:32:19.880Z,2.09
2023-02-06T08:33:20.045Z,2.15
2023-02-06T08:34:20.200Z,2.26
2023-02-06T08:35:21.387Z,2.27
2023-02-06T08:36:20.508Z,2.28
2023-02-06T08:37:20.686Z,2.23
2023-02-06T08:38:21.415Z,2.20
2023-02-06T08:39:21.092Z,2.20
2023-02-06T08:40:21.255Z,2.23
2023-02-06T08:41:22.413Z,2.31
2023-02-06T08:42:21.564Z,2.40
2023-02-06T08:43:21.705Z,2.22
2023-02-06T08:44:21.856Z,2.10
2023-02-06T08:45:23.912Z,2.20
2023-02-06T08:46:22.993Z,2.15
2023-02-06T08:47:22.914Z,2.30
2023-02-06T08:48:22.480Z,2.16
2023-02-06T08:49:22.673Z,2.28
2023-02-06T08:50:22.819Z,2.27
2023-02-06T08:51:23.914Z,2.27
2023-02-06T08:52:23.172Z,2.45
2023-02-06T08:53:23.359Z,2.35
2023-02-06T08:54:25.414Z,2.38
2023-02-06T08:55:25.331Z,2.33
2023-02-06T08:56:24.925Z,2.48
2023-02-06T08:57:24.922Z,2.58
2023-02-06T08:58:24.918Z,2.53
2023-02-06T08:59:24.959Z,2.58
2023-02-06T09:00:25.437Z,2.71
2023-02-06T09:01:26.301Z,2.71
2023-02-06T09:02:24.991Z,2.69
2023-02-06T09:03:25.777Z,2.64
2023-02-06T09:04:25.427Z,2.61
2023-02-06T09:05:25.596Z,2.71
2023-02-06T09:06:26.761Z,2.73
2023-02-06T09:07:26.009Z,2.67
2023-02-06T09:08:26.954Z,2.76
2023-02-06T09:09:26.919Z,2.70
2023-02-06T09:10:28.502Z,2.64
2023-02-06T09:11:26.751Z,2.69
2023-02-06T09:12:26.917Z,2.74
2023-02-06T09:13:27.959Z,2.85
2023-02-06T09:14:28.859Z,2.74
2023-02-06T09:15:27.360Z,2.85
2023-02-06T09:16:27.550Z,2.89
2023-02-06T09:17:27.700Z,2.92
2023-02-06T09:18:28.460Z,2.89
2023-02-06T09:19:28.046Z,2.98
2023-02-06T09:20:28.216Z,3.03
2023-02-06T09:21:29.421Z,3.12
2023-02-06T09:22:28.556Z,3.16
2023-02-06T09:23:28.753Z,3.10
2023-02-06T09:24:30.917Z,3.15
2023-02-06T09:25:29.940Z,3.23
2023-02-06T09:26:30.973Z,3.05
2023-02-06T09:27:29.954Z,3.09
2023-02-06T09:28:29.515Z,3.27
2023-02-06T09:29:29.613Z,3.24
2023-02-06T09:30:29.809Z,3.34
2023-02-06T09:31:31.937Z,3.34
2023-02-06T09:32:30.468Z,3.21
2023-02-06T09:33:31.412Z,3.16
2023-02-06T09:34:30.573Z,3.24
2023-02-06T09:35:30.728Z,3.24
2023-02-06T09:36:31.465Z,3.07
2023-02-06T09:37:31.103Z,3.00
2023-02-06T09:38:31.270Z,3.09
2023-02-06T09:39:31.451Z,3.13
2023-02-06T09:40:31.618Z,3.27
2023-02-06T09:41:31.788Z,3.07
2023-02-06T09:42:33.413Z,3.34
2023-02-06T09:43:32.955Z,3.27
2023-02-06T09:44:32.354Z,3.24
2023-02-06T09:45:33.478Z,3.09
2023-02-06T09:46:33.482Z,3.13
2023-02-06T09:47:32.998Z,3.16
2023-02-06T09:48:33.168Z,3.33
2023-02-06T09:49:33.954Z,3.34
2023-02-06T09:50:33.504Z,3.36
2023-02-06T09:51:35.411Z,3.34
2023-02-06T09:52:33.899Z,3.44
2023-02-06T09:53:35.417Z,3.64
2023-02-06T09:54:34.172Z,3.82
2023-02-06T09:55:35.234Z,3.89
2023-02-06T09:56:34.566Z,3.92
2023-02-06T09:57:35.419Z,3.78
2023-02-06T09:58:34.936Z,3.89
2023-02-06T09:59:35.127Z,3.88
2023-02-06T10:00:36.075Z,3.96
2023-02-06T10:01:35.411Z,3.88
2023-02-06T10:02:35.585Z,3.71
2023-02-06T10:03:35.742Z,3.79
2023-02-06T10:04:35.926Z,3.97
2023-02-06T10:05:36.301Z,3.85
2023-02-06T10:06:37.426Z,3.86
2023-02-06T10:07:36.554Z,3.97
2023-02-06T10:08:36.710Z,3.90
2023-02-06T10:09:36.860Z,4.04
2023-02-06T10:10:37.039Z,4.07
2023-02-06T10:11:37.209Z,4.26
2023-02-06T10:12:37.922Z,4.25
2023-02-06T10:13:37.563Z,4.29
2023-02-06T10:14:38.467Z,4.36
2023-02-06T10:15:38.166Z,4.40
2023-02-06T10:16:38.070Z,4.34
2023-02-06T10:17:38.925Z,4.42
2023-02-06T10:18:38.469Z,4.54
2023-02-06T10:19:38.670Z,4.73
2023-02-06T10:20:39.424Z,4.65
2023-02-06T10:21:40.032Z,4.83
2023-02-06T10:22:40.928Z,4.89
2023-02-06T10:23:39.426Z,4.98
2023-02-06T10:24:40.476Z,4.95
2023-02-06T10:25:39.758Z,4.89
2023-02-06T10:26:39.940Z,4.83
2023-02-06T10:27:40.125Z,4.92
2023-02-06T10:28:40.923Z,4.92
2023-02-06T10:29:40.450Z,5.01
2023-02-06T10:30:40.613Z,5.10
2023-02-06T10:31:40.829Z,5.10
2023-02-06T10:32:41.011Z,4.99
2023-02-06T10:33:41.193Z,4.91
2023-02-06T10:34:41.370Z,4.75
2023-02-06T10:35:41.514Z,4.88
2023-02-06T10:36:43.401Z,4.80
2023-02-06T10:37:41.939Z,4.84
2023-02-06T10:38:42.165Z,4.91
2023-02-06T10:39:42.932Z,5.12
2023-02-06T10:40:43.430Z,5.12
2023-02-06T10:41:43.465Z,5.20
2023-02-06T10:42:42.900Z,5.27
2023-02-06T10:43:43.643Z,5.14
2023-02-06T10:44:52.858Z,4.99
2023-02-06T10:45:46.438Z,4.73
2023-02-06T10:46:43.754Z,4.79
2023-02-06T10:47:43.854Z,4.86
2023-02-06T10:48:44.068Z,4.88
2023-02-06T10:49:44.267Z,5.14
2023-02-06T10:50:44.450Z,5.22
2023-02-06T10:51:44.618Z,5.25
2023-02-06T10:52:45.481Z,5.19
2023-02-06T10:53:45.799Z,5.22
2023-02-06T10:54:45.487Z,5.12
2023-02-06T10:55:48.083Z,5.13
2023-02-06T10:56:47.438Z,5.07
2023-02-06T10:57:46.454Z,5.12
2023-02-06T10:58:46.486Z,5.13
2023-02-06T10:59:46.941Z,5.27
2023-02-06T11:00:47.041Z,5.16
2023-02-06T11:01:46.621Z,5.20
2023-02-06T11:02:55.330Z,5.12
2023-02-06T11:03:48.964Z,4.80
2023-02-06T11:04:47.103Z,4.75
2023-02-06T11:05:47.302Z,4.72
2023-02-06T11:06:48.473Z,4.61
2023-02-06T11:07:49.436Z,4.84
2023-02-06T11:08:49.306Z,4.84
2023-02-06T11:09:47.989Z,5.10
2023-02-06T11:10:48.172Z,5.17
2023-02-06T11:11:48.755Z,5.28
2023-02-06T11:12:50.439Z,5.20
2023-02-06T11:13:49.016Z,5.25
2023-02-06T11:14:50.437Z,5.31
2023-02-06T11:15:49.047Z,5.17
2023-02-06T11:16:49.191Z,5.27
2023-02-06T11:17:49.330Z,5.28
2023-02-06T11:18:49.488Z,5.16
2023-02-06T11:19:50.887Z,5.09
2023-02-06T11:20:49.899Z,5.07
2023-02-06T11:21:50.064Z,5.20
2023-02-06T11:22:53.141Z,5.23
2023-02-06T11:23:51.395Z,5.28
2023-02-06T11:24:50.536Z,5.22
2023-02-06T11:25:50.699Z,5.37
2023-02-06T11:26:50.842Z,5.28
2023-02-06T11:27:51.022Z,5.17
2023-02-06T11:28:52.968Z,5.22
2023-02-06T11:29:52.252Z,5.22
2023-02-06T11:30:53.993Z,5.19
2023-02-06T11:31:51.799Z,5.04
2023-02-06T11:33:03.686Z,4.96
2023-02-06T11:33:54.488Z,4.75
2023-02-06T11:34:52.131Z,4.79
2023-02-06T11:35:52.324Z,4.89
2023-02-06T11:36:53.007Z,4.96
2023-02-06T11:37:54.447Z,4.99
2023-02-06T11:38:53.486Z,5.19
2023-02-06T11:39:52.987Z,5.14
2023-02-06T11:40:53.147Z,5.27
2023-02-06T11:41:53.307Z,5.17
2023-02-06T11:42:53.482Z,5.20
2023-02-06T11:43:53.998Z,5.19
2023-02-06T11:44:54.452Z,5.20
2023-02-06T11:45:54.520Z,5.17
2023-02-06T11:46:54.191Z,4.95
2023-02-06T11:47:54.357Z,4.91
2023-02-06T11:48:55.950Z,4.83
2023-02-06T11:49:54.706Z,4.75
2023-02-06T11:50:55.491Z,4.69
2023-02-06T11:51:55.945Z,4.57
2023-02-06T11:52:55.218Z,4.54
2023-02-06T11:53:55.426Z,4.52
2023-02-06T11:54:56.494Z,4.32
2023-02-06T11:55:56.493Z,4.21
2023-02-06T11:56:55.990Z,4.18
2023-02-06T11:57:56.952Z,4.28
2023-02-06T11:58:56.499Z,4.24
2023-02-06T11:59:56.525Z,4.32
2023-02-06T12:00:56.672Z,4.34
2023-02-06T12:01:58.506Z,4.40
2023-02-06T12:02:56.990Z,4.33
2023-02-06T12:03:58.002Z,4.34
2023-02-06T12:04:57.428Z,4.40
2023-02-06T12:05:59.604Z,4.37
2023-02-06T12:06:58.841Z,4.39
2023-02-06T12:07:58.954Z,4.34
2023-02-06T12:08:58.081Z,4.44
2023-02-06T12:09:58.276Z,4.47
2023-02-06T12:10:58.433Z,4.50
2023-02-06T12:11:59.005Z,4.50
2023-02-06T12:12:58.801Z,4.51
2023-02-06T12:13:59.960Z,4.47
2023-02-06T12:15:00.135Z,4.51
2023-02-06T12:15:59.336Z,4.43
2023-02-06T12:16:59.540Z,4.28
2023-02-06T12:18:00.452Z,4.33
2023-02-06T12:18:59.853Z,4.33
2023-02-06T12:20:00.034Z,4.42
2023-02-06T12:21:00.217Z,4.54
2023-02-06T12:22:00.989Z,4.44
2023-02-06T12:23:00.519Z,4.51
2023-02-06T12:24:01.521Z,4.50
2023-02-06T12:25:00.951Z,4.47
2023-02-06T12:26:01.131Z,4.39
2023-02-06T12:27:01.287Z,4.34
2023-02-06T12:28:02.033Z,4.26
2023-02-06T12:29:01.597Z,4.24
2023-02-06T12:30:02.457Z,4.29
2023-02-06T12:31:02.078Z,4.24
2023-02-06T12:32:03.990Z,4.25
2023-02-06T12:33:02.382Z,4.28
2023-02-06T12:34:02.563Z,4.25
2023-02-06T12:35:02.732Z,4.29
2023-02-06T12:36:03.452Z,4.24
2023-02-06T12:37:03.136Z,4.19
2023-02-06T12:38:03.310Z,4.24
2023-02-06T12:39:03.488Z,4.18
2023-02-06T12:40:03.675Z,4.18
2023-02-06T12:41:03.847Z,4.12
2023-02-06T12:42:04.061Z,4.21
2023-02-06T12:43:04.276Z,4.18
2023-02-06T12:44:04.493Z,4.24
2023-02-06T12:45:04.678Z,4.28
2023-02-06T12:46:04.861Z,4.24
2023-02-06T12:47:05.040Z,4.26
2023-02-06T12:48:05.237Z,4.21
2023-02-06T12:49:05.390Z,4.26
2023-02-06T12:50:05.547Z,4.26
2023-02-06T12:51:05.693Z,4.18
2023-02-06T12:52:05.853Z,4.19
2023-02-06T12:53:06.032Z,4.22
2023-02-06T12:54:06.255Z,4.26
2023-02-06T12:55:06.998Z,4.22
2023-02-06T12:56:07.502Z,4.24
2023-02-06T12:57:06.803Z,4.26
2023-02-06T12:58:06.959Z,4.28
2023-02-06T12:59:07.125Z,4.32
2023-02-06T13:00:07.292Z,4.26
2023-02-06T13:01:20.824Z,4.19
2023-02-06T13:02:10.058Z,4.16
2023-02-06T13:03:07.906Z,4.16
2023-02-06T13:04:08.973Z,4.07
2023-02-06T13:05:09.025Z,4.24
2023-02-06T13:06:08.385Z,4.26
2023-02-06T13:07:08.581Z,4.25
2023-02-06T13:08:08.764Z,4.24
2023-02-06T13:09:08.926Z,4.21
2023-02-06T13:10:09.260Z,4.32
2023-02-06T13:11:09.272Z,4.24
2023-02-06T13:12:10.003Z,4.19
2023-02-06T13:13:09.666Z,4.32
2023-02-06T13:14:09.845Z,4.32
2023-02-06T13:15:10.966Z,4.22
2023-02-06T13:16:10.242Z,4.15
2023-02-06T13:17:10.973Z,4.06
2023-02-06T13:18:10.616Z,4.00
2023-02-06T13:19:11.464Z,4.06
2023-02-06T13:20:10.989Z,4.00
2023-02-06T13:21:11.179Z,3.89